Terminal Aerodrome Forecast
Issued by NWS

Home | Current Version | Previous Version | Text Only | Print | Product List | Glossary On
Versions: 1 2 3 4 5 6 7 8 9 10 11 12 13 14 15 16 17 18
000
FTUS43 KJKL 070808 AAA
TAFSME
TAF AMD
KSME 070808Z 0708/0806 00000KT P6SM SKC
      TEMPO 0708/0711 4SM BR SKC
     FM071300 00000KT P6SM SCT040 BKN200
     FM071600 22008KT P6SM VCSH BKN035 OVC200
     FM080000 00000KT 6SM BR OVC250=

USA.gov is the U.S. government's official web portal to all federal, state and local government web resources and services.